createdAt,value
2018-06-07T00:02:27.311Z,21.00
2018-06-07T00:05:13.523Z,21.00
2018-06-07T00:10:35.560Z,21.00
2018-06-07T00:13:17.014Z,21.00
2018-06-07T00:15:56.566Z,21.00
2018-06-07T00:18:24.382Z,21.00
2018-06-07T00:23:41.211Z,20.90
2018-06-07T00:26:08.944Z,20.90
2018-06-07T00:28:37.346Z,20.90
2018-06-07T00:31:05.132Z,20.90
2018-06-07T00:33:33.003Z,20.90
2018-06-07T00:36:00.883Z,20.80
2018-06-07T00:44:31.181Z,20.70
2018-06-07T00:46:58.785Z,20.70
2018-06-07T00:49:26.837Z,20.60
2018-06-07T00:51:54.607Z,20.60
2018-06-07T00:54:44.783Z,20.60
2018-06-07T00:57:12.439Z,20.50
2018-06-07T00:59:40.160Z,20.50
2018-06-07T01:02:08.459Z,20.50
2018-06-07T01:04:36.932Z,20.50
2018-06-07T01:07:05.290Z,20.50
2018-06-07T01:09:33.007Z,20.50
2018-06-07T01:12:01.509Z,20.50
2018-06-07T01:14:29.776Z,20.50
2018-06-07T01:16:57.978Z,20.50
2018-06-07T01:19:26.251Z,20.40
2018-06-07T01:21:55.566Z,20.40
2018-06-07T01:24:25.091Z,20.40
2018-06-07T01:26:52.949Z,20.40
2018-06-07T01:29:32.075Z,20.40
2018-06-07T01:34:10.249Z,20.40
2018-06-07T01:36:39.216Z,20.30
2018-06-07T01:39:15.749Z,20.30
2018-06-07T01:41:43.613Z,20.30
2018-06-07T01:44:12.279Z,20.20
2018-06-07T01:46:40.079Z,20.20
2018-06-07T01:49:13.247Z,20.10
2018-06-07T01:51:41.181Z,20.00
2018-06-07T01:54:09.070Z,20.00
2018-06-07T01:56:36.844Z,20.00
2018-06-07T02:01:58.464Z,19.80
2018-06-07T02:04:26.440Z,19.80
2018-06-07T02:09:59.641Z,19.80
2018-06-07T02:12:27.507Z,19.80
2018-06-07T02:14:55.752Z,19.70
2018-06-07T02:17:23.625Z,19.70
2018-06-07T02:19:52.258Z,19.70
2018-06-07T02:22:21.354Z,19.60
2018-06-07T02:24:49.466Z,19.60
2018-06-07T02:27:17.187Z,19.50
2018-06-07T02:29:44.776Z,19.50
2018-06-07T02:32:12.600Z,19.40
2018-06-07T02:34:40.523Z,19.30
2018-06-07T02:37:09.416Z,19.30
2018-06-07T02:39:38.436Z,19.30
2018-06-07T02:42:06.040Z,19.20
2018-06-07T02:44:34.073Z,19.20
2018-06-07T02:47:01.870Z,19.20
2018-06-07T02:52:32.415Z,19.20
2018-06-07T02:55:00.235Z,19.20
2018-06-07T02:57:27.877Z,19.10
2018-06-07T02:59:56.400Z,19.00
2018-06-07T03:02:24.240Z,19.10
2018-06-07T03:05:02.889Z,19.10
2018-06-07T03:07:30.613Z,19.00
2018-06-07T03:09:58.306Z,19.00
2018-06-07T03:12:26.307Z,18.80
2018-06-07T03:14:59.019Z,18.80
2018-06-07T03:17:26.716Z,18.90
2018-06-07T03:19:56.895Z,18.70
2018-06-07T03:22:24.675Z,18.70
2018-06-07T03:24:52.620Z,18.70
2018-06-07T03:27:20.657Z,18.70
2018-06-07T03:29:48.478Z,18.80
2018-06-07T03:32:16.319Z,18.70
2018-06-07T03:34:47.665Z,18.50
2018-06-07T03:37:15.428Z,18.60
2018-06-07T03:39:53.061Z,18.60
2018-06-07T03:42:21.944Z,18.60
2018-06-07T03:44:59.581Z,18.60
2018-06-07T03:47:31.742Z,18.60
2018-06-07T03:52:52.010Z,18.70
2018-06-07T03:55:21.013Z,18.60
2018-06-07T03:57:55.471Z,18.50
2018-06-07T04:00:23.444Z,18.60
2018-06-07T04:02:51.131Z,18.60
2018-06-07T04:05:19.069Z,18.70
2018-06-07T04:07:47.758Z,18.70
2018-06-07T04:10:19.580Z,18.70
2018-06-07T04:12:47.374Z,18.70
2018-06-07T04:15:15.100Z,18.70
2018-06-07T04:17:49.110Z,18.70
2018-06-07T04:20:17.081Z,18.70
2018-06-07T04:22:57.240Z,18.80
2018-06-07T04:25:25.102Z,18.80
2018-06-07T04:27:52.845Z,18.90
2018-06-07T04:30:24.127Z,19.00
2018-06-07T04:32:52.539Z,19.10
2018-06-07T04:35:22.491Z,19.20
2018-06-07T04:37:50.221Z,19.30
2018-06-07T04:40:22.427Z,19.40
2018-06-07T04:42:50.288Z,19.40
2018-06-07T04:45:17.983Z,19.40
2018-06-07T04:47:45.887Z,19.50
2018-06-07T04:50:13.592Z,19.50
2018-06-07T04:52:46.328Z,19.60
2018-06-07T04:55:14.248Z,19.70
2018-06-07T04:57:57.319Z,19.80
2018-06-07T05:00:28.845Z,19.80
2018-06-07T05:02:58.557Z,19.90
2018-06-07T05:05:26.896Z,20.00
2018-06-07T05:07:56.656Z,20.10
2018-06-07T05:10:25.527Z,20.10
2018-06-07T05:12:57.268Z,20.20
2018-06-07T05:15:25.782Z,20.20
2018-06-07T05:17:54.409Z,20.30
2018-06-07T05:23:27.266Z,20.50
2018-06-07T05:25:58.399Z,20.60
2018-06-07T05:28:29.439Z,20.60
2018-06-07T05:31:05.903Z,20.70
2018-06-07T05:33:34.759Z,20.70
2018-06-07T05:36:14.986Z,20.90
2018-06-07T05:38:58.557Z,21.00
2018-06-07T05:44:31.312Z,21.00
2018-06-07T05:46:59.715Z,21.10
2018-06-07T05:49:29.500Z,21.10
2018-06-07T05:51:59.328Z,21.30
2018-06-07T05:54:28.659Z,21.30
2018-06-07T06:00:15.393Z,21.50
2018-06-07T06:02:46.282Z,21.60
2018-06-07T06:05:20.964Z,21.70
2018-06-07T06:07:48.730Z,21.70
2018-06-07T06:10:29.915Z,21.70
2018-06-07T06:12:57.503Z,21.80
2018-06-07T06:15:25.417Z,21.90
2018-06-07T06:17:54.608Z,21.90
2018-06-07T06:20:24.609Z,21.90
2018-06-07T06:22:52.403Z,21.90
2018-06-07T06:25:20.271Z,22.00
2018-06-07T06:27:48.029Z,22.10
2018-06-07T06:30:16.695Z,22.20
2018-06-07T06:32:45.349Z,22.30
2018-06-07T06:35:13.037Z,22.40
2018-06-07T06:41:22.369Z,22.50
2018-06-07T06:43:50.360Z,22.60
2018-06-07T06:46:18.019Z,22.70
2018-06-07T06:48:45.745Z,22.70
2018-06-07T06:51:22.677Z,22.80
2018-06-07T06:53:52.569Z,22.80
2018-06-07T06:56:21.912Z,22.90
2018-06-07T06:58:49.482Z,22.80
2018-06-07T07:01:35.663Z,22.90
2018-06-07T07:04:03.698Z,22.90
2018-06-07T07:06:31.375Z,23.00
2018-06-07T07:08:58.946Z,23.10
2018-06-07T07:11:26.546Z,23.20
2018-06-07T07:13:54.212Z,23.30
2018-06-07T07:16:23.078Z,23.40
2018-06-07T07:18:51.966Z,23.40
2018-06-07T07:21:19.959Z,23.40
2018-06-07T07:23:47.631Z,23.50
2018-06-07T07:26:16.279Z,23.60
2018-06-07T07:28:44.187Z,23.60
2018-06-07T07:31:11.734Z,23.70
2018-06-07T07:33:39.281Z,23.80
2018-06-07T07:36:06.874Z,23.70
2018-06-07T07:38:34.522Z,23.80
2018-06-07T07:41:03.114Z,23.80
2018-06-07T07:43:30.625Z,23.80
2018-06-07T07:45:58.206Z,23.70
2018-06-07T07:48:25.849Z,23.80
2018-06-07T07:50:53.540Z,23.90
2018-06-07T07:53:22.707Z,24.00
2018-06-07T07:55:50.535Z,24.10
2018-06-07T07:58:18.293Z,24.10
2018-06-07T08:00:45.256Z,24.30
2018-06-07T08:03:13.639Z,24.30
2018-06-07T08:05:41.243Z,24.30
2018-06-07T08:08:08.852Z,24.50
2018-06-07T08:10:36.424Z,24.60
2018-06-07T08:13:04.014Z,24.80
2018-06-07T08:15:31.643Z,24.80
2018-06-07T08:17:59.775Z,24.90
2018-06-07T08:20:27.648Z,24.70
2018-06-07T08:22:55.704Z,24.80
2018-06-07T08:25:24.466Z,24.80
2018-06-07T08:27:52.189Z,25.00
2018-06-07T08:30:19.818Z,25.00
2018-06-07T08:32:49.287Z,25.20
2018-06-07T08:35:17.938Z,25.20
2018-06-07T08:37:45.482Z,25.30
2018-06-07T08:40:13.370Z,25.40
2018-06-07T08:42:42.367Z,25.40
2018-06-07T08:45:10.987Z,25.50
2018-06-07T08:47:38.691Z,25.40
2018-06-07T08:50:06.239Z,25.50
2018-06-07T08:52:34.888Z,25.60
2018-06-07T08:55:02.670Z,25.60
2018-06-07T08:57:30.263Z,25.70
2018-06-07T08:59:57.948Z,25.90
2018-06-07T09:02:25.646Z,25.90
2018-06-07T09:04:53.291Z,25.90
2018-06-07T09:07:22.060Z,26.00
2018-06-07T09:09:49.886Z,26.00
2018-06-07T09:12:17.591Z,25.90
2018-06-07T09:14:46.726Z,25.70
2018-06-07T09:17:16.394Z,25.80
2018-06-07T09:19:44.575Z,26.00
2018-06-07T09:22:12.199Z,26.20
2018-06-07T09:24:39.414Z,26.00
2018-06-07T09:27:06.919Z,25.90
2018-06-07T09:29:34.613Z,26.10
2018-06-07T09:32:02.330Z,26.20
2018-06-07T09:34:30.029Z,26.30
2018-06-07T09:36:57.879Z,26.40
2018-06-07T09:39:26.971Z,26.50
2018-06-07T09:44:47.239Z,26.50
2018-06-07T09:47:14.927Z,26.70
2018-06-07T09:49:42.476Z,26.90
2018-06-07T09:52:10.038Z,27.00
2018-06-07T09:54:37.650Z,27.10
2018-06-07T09:57:05.344Z,27.20
2018-06-07T09:59:33.007Z,27.20
2018-06-07T10:02:01.115Z,27.20
2018-06-07T10:04:28.854Z,27.50
2018-06-07T10:06:56.578Z,27.70
2018-06-07T10:09:24.166Z,27.90
2018-06-07T10:11:51.740Z,27.90
2018-06-07T10:14:19.246Z,28.00
2018-06-07T10:16:47.943Z,28.00
2018-06-07T10:19:15.654Z,27.90
2018-06-07T10:21:44.233Z,28.00
2018-06-07T10:24:11.802Z,28.10
2018-06-07T10:26:39.504Z,28.30
2018-06-07T10:29:07.381Z,28.30
2018-06-07T10:31:34.985Z,28.40
2018-06-07T10:34:04.003Z,28.40
2018-06-07T10:36:31.755Z,28.60
2018-06-07T10:39:00.393Z,28.60
2018-06-07T10:41:37.856Z,28.60
2018-06-07T10:44:05.581Z,28.80
2018-06-07T10:46:33.137Z,28.90
2018-06-07T10:49:01.346Z,28.90
2018-06-07T10:51:29.476Z,29.20
2018-06-07T10:53:57.155Z,29.20
2018-06-07T10:56:24.819Z,29.20
2018-06-07T10:58:53.612Z,29.10
2018-06-07T11:01:21.415Z,29.40
2018-06-07T11:03:49.762Z,29.60
2018-06-07T11:06:17.349Z,29.40
2018-06-07T11:08:47.040Z,29.40
2018-06-07T11:11:14.615Z,29.10
2018-06-07T11:13:43.401Z,29.10
2018-06-07T11:16:10.996Z,28.80
2018-06-07T11:18:38.561Z,28.90
2018-06-07T11:21:07.732Z,29.10
2018-06-07T11:23:37.418Z,29.40
2018-06-07T11:26:06.046Z,29.60
2018-06-07T11:28:34.915Z,29.80
2018-06-07T11:31:03.699Z,29.90
2018-06-07T11:33:34.443Z,30.00
2018-06-07T11:36:14.385Z,30.20
2018-06-07T11:38:42.008Z,30.30
2018-06-07T11:41:09.785Z,30.60
2018-06-07T11:43:51.246Z,30.80
2018-06-07T11:46:18.913Z,30.90
2018-06-07T11:48:46.733Z,30.90
2018-06-07T11:51:15.310Z,31.20
2018-06-07T11:53:42.935Z,31.20
2018-06-07T11:56:12.598Z,31.50
2018-06-07T11:58:42.211Z,31.70
2018-06-07T12:01:10.839Z,31.40
2018-06-07T12:03:43.484Z,30.80
2018-06-07T12:06:11.108Z,30.80
2018-06-07T12:08:38.705Z,30.70
2018-06-07T12:11:06.379Z,30.40
2018-06-07T12:13:34.067Z,30.30
2018-06-07T12:16:01.591Z,30.10
2018-06-07T12:18:29.367Z,30.00
2018-06-07T12:20:56.903Z,29.70
2018-06-07T12:26:17.179Z,29.70
2018-06-07T12:28:45.611Z,29.70
2018-06-07T12:31:14.327Z,29.70
2018-06-07T12:33:42.041Z,29.70
2018-06-07T12:36:10.242Z,29.50
2018-06-07T12:38:38.244Z,29.30
2018-06-07T12:41:07.265Z,29.30
2018-06-07T12:43:40.462Z,29.30
2018-06-07T12:46:08.295Z,29.10
2018-06-07T12:48:35.822Z,28.40
2018-06-07T12:51:03.487Z,28.10
2018-06-07T12:53:31.017Z,27.90
2018-06-07T12:55:58.536Z,27.90
2018-06-07T12:58:26.247Z,27.70
2018-06-07T13:00:54.045Z,27.60
2018-06-07T13:03:21.789Z,27.30
2018-06-07T13:05:50.008Z,27.20
2018-06-07T13:08:19.621Z,26.80
2018-06-07T13:10:52.212Z,26.10
2018-06-07T13:13:19.915Z,24.90
2018-06-07T13:15:47.602Z,24.30
2018-06-07T13:18:15.160Z,24.30
2018-06-07T13:20:44.349Z,24.20
2018-06-07T13:23:13.117Z,23.80
2018-06-07T13:25:40.758Z,23.70
2018-06-07T13:28:08.374Z,23.40
2018-06-07T13:30:36.062Z,22.80
2018-06-07T13:33:05.802Z,22.60
2018-06-07T13:35:34.898Z,22.40
2018-06-07T13:38:03.478Z,22.40
2018-06-07T13:40:31.242Z,22.20
2018-06-07T13:43:08.771Z,22.00
2018-06-07T13:45:36.339Z,21.90
2018-06-07T13:48:04.055Z,22.10
2018-06-07T13:53:34.734Z,21.90
2018-06-07T13:56:02.774Z,22.00
2018-06-07T13:58:30.592Z,22.00
2018-06-07T14:00:58.395Z,21.90
2018-06-07T14:06:21.641Z,22.00
2018-06-07T14:08:49.362Z,21.90
2018-06-07T14:11:18.122Z,21.90
2018-06-07T14:13:45.858Z,21.90
2018-06-07T14:16:15.201Z,21.80
2018-06-07T14:18:42.979Z,21.80
2018-06-07T14:21:11.539Z,21.70
2018-06-07T14:26:33.180Z,21.80
2018-06-07T14:29:02.257Z,21.90
2018-06-07T14:31:30.279Z,22.00
2018-06-07T14:33:59.048Z,22.00
2018-06-07T14:36:26.782Z,22.10
2018-06-07T14:38:54.509Z,22.30
2018-06-07T14:41:24.294Z,22.30
2018-06-07T14:43:57.543Z,22.40
2018-06-07T14:46:27.152Z,22.50
2018-06-07T14:48:54.947Z,22.60
2018-06-07T14:51:23.661Z,22.50
2018-06-07T14:53:52.502Z,22.00
2018-06-07T14:56:20.715Z,22.10
2018-06-07T14:58:49.281Z,22.20
2018-06-07T15:01:17.868Z,22.00
2018-06-07T15:03:52.508Z,21.90
2018-06-07T15:06:21.148Z,22.10
2018-06-07T15:08:48.975Z,22.40
2018-06-07T15:11:18.687Z,22.60
2018-06-07T15:13:46.390Z,22.60
2018-06-07T15:16:15.041Z,22.70
2018-06-07T15:18:43.758Z,22.80
2018-06-07T15:21:13.827Z,22.90
2018-06-07T15:23:41.442Z,22.90
2018-06-07T15:26:09.184Z,22.90
2018-06-07T15:28:37.011Z,22.90
2018-06-07T15:31:06.657Z,22.80
2018-06-07T15:33:40.241Z,22.90
2018-06-07T15:36:08.997Z,22.90
2018-06-07T15:38:38.940Z,22.90
2018-06-07T15:41:07.515Z,22.90
2018-06-07T15:43:35.646Z,22.90
2018-06-07T15:46:05.525Z,22.90
2018-06-07T15:48:33.771Z,22.90
2018-06-07T15:51:02.388Z,22.80
2018-06-07T15:53:31.114Z,22.50
2018-06-07T15:55:58.838Z,22.70
2018-06-07T15:58:27.294Z,22.70
2018-06-07T16:00:55.999Z,22.70
2018-06-07T16:03:27.997Z,22.70
2018-06-07T16:05:55.843Z,22.80
2018-06-07T16:08:23.485Z,22.90
2018-06-07T16:10:52.864Z,23.10
2018-06-07T16:13:21.548Z,23.30
2018-06-07T16:15:49.279Z,23.30
2018-06-07T16:18:17.095Z,23.40
2018-06-07T16:20:45.724Z,23.40
2018-06-07T16:23:13.435Z,23.50
2018-06-07T16:25:41.082Z,23.60
2018-06-07T16:28:09.894Z,23.50
2018-06-07T16:30:38.684Z,23.70
2018-06-07T16:33:06.702Z,23.80
2018-06-07T16:35:35.408Z,23.90
2018-06-07T16:38:15.765Z,24.00
2018-06-07T16:40:44.485Z,24.00
2018-06-07T16:43:13.079Z,24.00
2018-06-07T16:45:40.754Z,24.10
2018-06-07T16:48:10.400Z,24.20
2018-06-07T16:50:39.199Z,24.10
2018-06-07T16:53:08.427Z,24.10
2018-06-07T16:55:37.056Z,24.00
2018-06-07T16:58:04.717Z,24.00
2018-06-07T17:00:33.383Z,24.00
2018-06-07T17:03:02.190Z,24.00
2018-06-07T17:05:29.918Z,23.90
2018-06-07T17:07:57.663Z,23.80
2018-06-07T17:10:25.957Z,23.80
2018-06-07T17:12:53.743Z,23.70
2018-06-07T17:15:22.963Z,23.60
2018-06-07T17:17:50.486Z,23.60
2018-06-07T17:20:18.746Z,23.50
2018-06-07T17:22:46.463Z,23.40
2018-06-07T17:25:19.433Z,23.40
2018-06-07T17:27:49.502Z,23.30
2018-06-07T17:30:20.199Z,23.20
2018-06-07T17:32:49.014Z,23.10
2018-06-07T17:35:17.782Z,23.10
2018-06-07T17:37:50.230Z,23.10
2018-06-07T17:40:17.890Z,23.00
2018-06-07T17:42:45.623Z,22.90
2018-06-07T17:45:20.885Z,22.90
2018-06-07T17:47:48.592Z,22.90
2018-06-07T17:50:16.289Z,22.80
2018-06-07T17:52:44.379Z,22.80
2018-06-07T17:55:12.468Z,22.70
2018-06-07T17:57:40.018Z,22.60
2018-06-07T18:00:09.405Z,22.50
2018-06-07T18:02:37.049Z,22.50
2018-06-07T18:05:08.278Z,22.40
2018-06-07T18:07:38.729Z,22.40
2018-06-07T18:10:07.594Z,22.40
2018-06-07T18:12:35.278Z,22.30
2018-06-07T18:15:13.701Z,22.30
2018-06-07T18:17:47.992Z,22.10
2018-06-07T18:20:15.852Z,22.00
2018-06-07T18:22:43.692Z,22.00
2018-06-07T18:25:11.507Z,22.00
2018-06-07T18:27:46.965Z,21.90
2018-06-07T18:30:14.597Z,21.80
2018-06-07T18:32:42.383Z,21.80
2018-06-07T18:35:10.390Z,21.80
2018-06-07T18:37:38.051Z,21.80
2018-06-07T18:40:06.642Z,21.60
2018-06-07T18:42:34.572Z,21.60
2018-06-07T18:45:02.298Z,21.50
2018-06-07T18:47:29.995Z,21.50
2018-06-07T18:50:01.224Z,21.50
2018-06-07T18:52:35.853Z,21.40
2018-06-07T18:55:04.010Z,21.30
2018-06-07T18:57:31.985Z,21.10
2018-06-07T19:00:01.555Z,20.90
2018-06-07T19:02:29.977Z,21.00
2018-06-07T19:05:03.324Z,21.20
2018-06-07T19:07:31.325Z,21.20
2018-06-07T19:10:05.120Z,21.20
2018-06-07T19:12:33.144Z,21.10
2018-06-07T19:15:10.470Z,21.20
2018-06-07T19:17:41.728Z,21.10
2018-06-07T19:20:20.616Z,21.10
2018-06-07T19:22:49.498Z,21.10
2018-06-07T19:25:22.974Z,21.10
2018-06-07T19:27:51.960Z,21.10
2018-06-07T19:30:20.582Z,21.10
2018-06-07T19:32:53.700Z,21.00
2018-06-07T19:35:21.275Z,21.00
2018-06-07T19:37:48.946Z,21.00
2018-06-07T19:40:21.950Z,20.90
2018-06-07T19:42:49.646Z,20.90
2018-06-07T19:45:17.170Z,20.90
2018-06-07T19:47:44.832Z,20.80
2018-06-07T19:50:12.451Z,20.90
2018-06-07T19:52:40.010Z,20.90
2018-06-07T19:55:07.613Z,20.80
2018-06-07T19:57:35.248Z,20.80
2018-06-07T20:00:04.758Z,20.60
2018-06-07T20:02:33.460Z,20.60
2018-06-07T20:05:01.002Z,20.50
2018-06-07T20:07:28.951Z,20.40
2018-06-07T20:09:58.652Z,20.20
2018-06-07T20:12:25.754Z,20.10
2018-06-07T20:14:53.838Z,20.00
2018-06-07T20:17:20.870Z,19.90
2018-06-07T20:19:49.458Z,20.00
2018-06-07T20:22:18.014Z,20.10
2018-06-07T20:24:45.583Z,20.20
2018-06-07T20:27:13.210Z,20.20
2018-06-07T20:29:41.889Z,20.20
2018-06-07T20:32:10.589Z,20.20
2018-06-07T20:34:38.290Z,20.30
2018-06-07T20:37:05.847Z,20.30
2018-06-07T20:39:33.872Z,20.20
2018-06-07T20:42:01.475Z,20.20
2018-06-07T20:44:29.064Z,20.30
2018-06-07T20:46:56.641Z,20.30
2018-06-07T20:49:24.303Z,20.30
2018-06-07T20:51:51.880Z,20.40
2018-06-07T20:54:20.512Z,20.30
2018-06-07T20:56:48.042Z,20.30
2018-06-07T20:59:15.658Z,20.30
2018-06-07T21:01:43.235Z,20.20
2018-06-07T21:04:10.876Z,20.20
2018-06-07T21:06:38.505Z,20.20
2018-06-07T21:09:07.880Z,20.20
2018-06-07T21:11:36.496Z,20.20
2018-06-07T21:14:04.539Z,20.10
2018-06-07T21:16:32.296Z,20.00
2018-06-07T21:18:59.992Z,20.00
2018-06-07T21:21:27.560Z,20.00
2018-06-07T21:23:55.144Z,19.90
2018-06-07T21:26:22.759Z,19.80
2018-06-07T21:28:50.352Z,19.80
2018-06-07T21:31:17.967Z,19.90
2018-06-07T21:33:45.639Z,19.80
2018-06-07T21:36:13.328Z,19.80
2018-06-07T21:38:40.889Z,19.80
2018-06-07T21:41:08.449Z,19.80
2018-06-07T21:43:35.979Z,19.90
2018-06-07T21:46:03.745Z,19.90
2018-06-07T21:48:31.261Z,19.80
2018-06-07T21:50:58.910Z,19.80
2018-06-07T21:53:26.591Z,19.80
2018-06-07T21:55:54.453Z,19.80
2018-06-07T21:58:22.126Z,19.80
2018-06-07T22:00:49.779Z,19.80
2018-06-07T22:03:17.650Z,19.80
2018-06-07T22:05:45.307Z,19.80
2018-06-07T22:08:13.210Z,19.80
2018-06-07T22:10:41.247Z,19.80
2018-06-07T22:13:09.130Z,19.80
2018-06-07T22:15:39.726Z,19.80
2018-06-07T22:18:10.417Z,19.80
2018-06-07T22:20:46.569Z,19.70
2018-06-07T22:23:22.598Z,19.70
2018-06-07T22:26:09.930Z,19.70
2018-06-07T22:28:41.090Z,19.60
2018-06-07T22:31:22.541Z,19.50
2018-06-07T22:34:08.376Z,19.40
2018-06-07T22:36:41.425Z,19.40
2018-06-07T22:39:10.910Z,19.40
2018-06-07T22:41:42.461Z,19.50
2018-06-07T22:44:11.566Z,19.50
2018-06-07T22:46:40.835Z,19.40
2018-06-07T22:52:11.292Z,19.40
2018-06-07T22:54:39.002Z,19.40
2018-06-07T22:57:09.048Z,19.40
2018-06-07T22:59:36.751Z,19.40
2018-06-07T23:02:03.992Z,19.40
2018-06-07T23:04:31.281Z,19.40
2018-06-07T23:07:01.248Z,19.40
2018-06-07T23:09:30.256Z,19.40
2018-06-07T23:11:58.288Z,19.30
2018-06-07T23:14:27.270Z,19.30
2018-06-07T23:16:56.247Z,19.30
2018-06-07T23:19:23.396Z,19.30
2018-06-07T23:21:51.792Z,19.40
2018-06-07T23:24:21.287Z,19.30
2018-06-07T23:26:49.241Z,19.30
2018-06-07T23:29:17.174Z,19.20
2018-06-07T23:31:45.604Z,19.20
2018-06-07T23:34:13.882Z,19.20
2018-06-07T23:36:43.586Z,19.00
2018-06-07T23:39:11.289Z,19.10
2018-06-07T23:41:38.967Z,19.10
2018-06-07T23:44:06.619Z,19.10
2018-06-07T23:46:34.340Z,19.10
2018-06-07T23:49:02.009Z,19.10
2018-06-07T23:51:29.589Z,19.20
2018-06-07T23:53:57.449Z,19.10
2018-06-07T23:56:25.128Z,19.20
2018-06-07T23:58:53.172Z,19.20
